sensor_id;sensor_type;location;lat;lon;timestamp;temperature;humidity
18103;DHT22;9178;51.120;6.192;2022-07-11T00:02:08;17.10;99.90
18103;DHT22;9178;51.120;6.192;2022-07-11T00:04:36;17.10;99.90
18103;DHT22;9178;51.120;6.192;2022-07-11T00:07:03;17.10;99.90
18103;DHT22;9178;51.120;6.192;2022-07-11T00:09:31;17.10;99.90
18103;DHT22;9178;51.120;6.192;2022-07-11T00:11:59;17.10;99.90
18103;DHT22;9178;51.120;6.192;2022-07-11T00:14:26;17.10;99.90
18103;DHT22;9178;51.120;6.192;2022-07-11T00:16:53;17.10;99.90
18103;DHT22;9178;51.120;6.192;2022-07-11T00:19:20;17.10;99.90
18103;DHT22;9178;51.120;6.192;2022-07-11T00:21:47;17.10;99.90
18103;DHT22;9178;51.120;6.192;2022-07-11T00:24:14;17.10;99.90
18103;DHT22;9178;51.120;6.192;2022-07-11T00:26:44;17.10;99.90
18103;DHT22;9178;51.120;6.192;2022-07-11T00:29:12;17.10;99.90
18103;DHT22;9178;51.120;6.192;2022-07-11T00:31:38;17.00;99.90
18103;DHT22;9178;51.120;6.192;2022-07-11T00:34:05;17.00;99.90
18103;DHT22;9178;51.120;6.192;2022-07-11T00:36:32;17.00;99.90
18103;DHT22;9178;51.120;6.192;2022-07-11T00:38:59;17.00;99.90
18103;DHT22;9178;51.120;6.192;2022-07-11T00:41:26;17.00;99.90
18103;DHT22;9178;51.120;6.192;2022-07-11T00:43:57;17.00;99.90
18103;DHT22;9178;51.120;6.192;2022-07-11T00:46:26;17.00;99.90
18103;DHT22;9178;51.120;6.192;2022-07-11T00:48:53;17.00;99.90
18103;DHT22;9178;51.120;6.192;2022-07-11T00:51:21;17.00;99.90
18103;DHT22;9178;51.120;6.192;2022-07-11T00:53:49;17.00;99.90
18103;DHT22;9178;51.120;6.192;2022-07-11T00:56:18;17.00;99.90
18103;DHT22;9178;51.120;6.192;2022-07-11T00:58:46;16.90;99.90
18103;DHT22;9178;51.120;6.192;2022-07-11T01:01:14;16.90;99.90
18103;DHT22;9178;51.120;6.192;2022-07-11T01:03:41;16.90;99.90
18103;DHT22;9178;51.120;6.192;2022-07-11T01:06:08;16.90;99.90
18103;DHT22;9178;51.120;6.192;2022-07-11T01:08:36;16.90;99.90
18103;DHT22;9178;51.120;6.192;2022-07-11T01:11:05;16.90;99.90
18103;DHT22;9178;51.120;6.192;2022-07-11T01:13:34;16.80;99.90
18103;DHT22;9178;51.120;6.192;2022-07-11T01:16:12;16.80;99.90
18103;DHT22;9178;51.120;6.192;2022-07-11T01:18:47;16.80;99.90
18103;DHT22;9178;51.120;6.192;2022-07-11T01:21:28;16.80;99.90
18103;DHT22;9178;51.120;6.192;2022-07-11T01:23:58;16.80;99.90
18103;DHT22;9178;51.120;6.192;2022-07-11T01:26:25;16.70;99.90
18103;DHT22;9178;51.120;6.192;2022-07-11T01:28:52;16.70;99.90
18103;DHT22;9178;51.120;6.192;2022-07-11T01:31:20;16.70;99.90
18103;DHT22;9178;51.120;6.192;2022-07-11T01:33:47;16.70;99.90
18103;DHT22;9178;51.120;6.192;2022-07-11T01:36:15;16.60;99.90
18103;DHT22;9178;51.120;6.192;2022-07-11T01:38:42;16.60;99.90
18103;DHT22;9178;51.120;6.192;2022-07-11T01:41:10;16.50;99.90
18103;DHT22;9178;51.120;6.192;2022-07-11T01:43:37;16.50;99.90
18103;DHT22;9178;51.120;6.192;2022-07-11T01:46:04;16.40;99.90
18103;DHT22;9178;51.120;6.192;2022-07-11T01:48:31;16.30;99.90
18103;DHT22;9178;51.120;6.192;2022-07-11T01:50:57;16.30;99.90
18103;DHT22;9178;51.120;6.192;2022-07-11T01:53:24;16.20;99.90
18103;DHT22;9178;51.120;6.192;2022-07-11T01:55:51;16.20;99.90
18103;DHT22;9178;51.120;6.192;2022-07-11T01:58:20;16.10;99.90
18103;DHT22;9178;51.120;6.192;2022-07-11T02:00:46;16.10;99.90
18103;DHT22;9178;51.120;6.192;2022-07-11T02:03:13;16.00;99.90
18103;DHT22;9178;51.120;6.192;2022-07-11T02:05:40;16.00;99.90
18103;DHT22;9178;51.120;6.192;2022-07-11T02:08:07;15.90;99.90
18103;DHT22;9178;51.120;6.192;2022-07-11T02:10:43;15.90;99.90
18103;DHT22;9178;51.120;6.192;2022-07-11T02:13:11;15.80;99.90
18103;DHT22;9178;51.120;6.192;2022-07-11T02:15:40;15.70;99.90
18103;DHT22;9178;51.120;6.192;2022-07-11T02:18:07;15.60;99.90
18103;DHT22;9178;51.120;6.192;2022-07-11T02:20:35;15.60;99.90
18103;DHT22;9178;51.120;6.192;2022-07-11T02:23:02;15.50;99.90
18103;DHT22;9178;51.120;6.192;2022-07-11T02:25:29;15.50;99.90
18103;DHT22;9178;51.120;6.192;2022-07-11T02:27:56;15.40;99.90
18103;DHT22;9178;51.120;6.192;2022-07-11T02:30:23;15.40;99.90
18103;DHT22;9178;51.120;6.192;2022-07-11T02:32:52;15.40;99.90
18103;DHT22;9178;51.120;6.192;2022-07-11T02:35:19;15.30;99.90
18103;DHT22;9178;51.120;6.192;2022-07-11T02:37:46;15.30;99.90
18103;DHT22;9178;51.120;6.192;2022-07-11T02:40:14;15.20;99.90
18103;DHT22;9178;51.120;6.192;2022-07-11T02:42:42;15.20;99.90
18103;DHT22;9178;51.120;6.192;2022-07-11T02:45:09;15.20;99.90
18103;DHT22;9178;51.120;6.192;2022-07-11T02:47:37;15.20;99.90
18103;DHT22;9178;51.120;6.192;2022-07-11T02:50:07;15.20;99.90
18103;DHT22;9178;51.120;6.192;2022-07-11T02:52:35;15.10;99.90
18103;DHT22;9178;51.120;6.192;2022-07-11T02:55:02;15.10;99.90
18103;DHT22;9178;51.120;6.192;2022-07-11T02:57:29;15.10;99.90
18103;DHT22;9178;51.120;6.192;2022-07-11T02:59:56;15.00;99.90
18103;DHT22;9178;51.120;6.192;2022-07-11T03:02:22;15.00;99.90
18103;DHT22;9178;51.120;6.192;2022-07-11T03:04:50;15.00;99.90
18103;DHT22;9178;51.120;6.192;2022-07-11T03:07:18;15.00;99.90
18103;DHT22;9178;51.120;6.192;2022-07-11T03:09:45;14.90;99.90
18103;DHT22;9178;51.120;6.192;2022-07-11T03:12:11;14.90;99.90
18103;DHT22;9178;51.120;6.192;2022-07-11T03:14:38;14.90;99.90
18103;DHT22;9178;51.120;6.192;2022-07-11T03:17:05;14.80;99.90
18103;DHT22;9178;51.120;6.192;2022-07-11T03:19:32;14.80;99.90
18103;DHT22;9178;51.120;6.192;2022-07-11T03:21:58;14.80;99.90
18103;DHT22;9178;51.120;6.192;2022-07-11T03:24:26;14.80;99.90
18103;DHT22;9178;51.120;6.192;2022-07-11T03:26:53;14.80;99.90
18103;DHT22;9178;51.120;6.192;2022-07-11T03:29:20;14.80;99.90
18103;DHT22;9178;51.120;6.192;2022-07-11T03:31:47;14.80;99.90
18103;DHT22;9178;51.120;6.192;2022-07-11T03:34:14;14.70;99.90
18103;DHT22;9178;51.120;6.192;2022-07-11T03:36:40;14.70;99.90
18103;DHT22;9178;51.120;6.192;2022-07-11T03:39:07;14.70;99.90
18103;DHT22;9178;51.120;6.192;2022-07-11T03:41:35;14.70;99.90
18103;DHT22;9178;51.120;6.192;2022-07-11T03:44:02;14.70;99.90
18103;DHT22;9178;51.120;6.192;2022-07-11T03:46:29;14.70;99.90
18103;DHT22;9178;51.120;6.192;2022-07-11T03:48:56;14.60;99.90
18103;DHT22;9178;51.120;6.192;2022-07-11T03:51:23;14.70;99.90
18103;DHT22;9178;51.120;6.192;2022-07-11T03:53:50;14.70;99.90
18103;DHT22;9178;51.120;6.192;2022-07-11T03:56:16;14.70;99.90
18103;DHT22;9178;51.120;6.192;2022-07-11T03:58:49;14.70;99.90
18103;DHT22;9178;51.120;6.192;2022-07-11T04:01:16;14.70;99.90
18103;DHT22;9178;51.120;6.192;2022-07-11T04:03:44;14.70;99.90
18103;DHT22;9178;51.120;6.192;2022-07-11T04:06:11;14.70;99.90
18103;DHT22;9178;51.120;6.192;2022-07-11T04:08:38;14.80;99.90
18103;DHT22;9178;51.120;6.192;2022-07-11T04:11:05;14.80;99.90
18103;DHT22;9178;51.120;6.192;2022-07-11T04:13:32;14.80;99.90
18103;DHT22;9178;51.120;6.192;2022-07-11T04:16:00;14.90;99.90
18103;DHT22;9178;51.120;6.192;2022-07-11T04:18:27;14.90;99.90
18103;DHT22;9178;51.120;6.192;2022-07-11T04:20:54;15.00;99.90
18103;DHT22;9178;51.120;6.192;2022-07-11T04:23:21;15.00;99.90
18103;DHT22;9178;51.120;6.192;2022-07-11T04:25:48;15.00;99.90
18103;DHT22;9178;51.120;6.192;2022-07-11T04:28:14;15.10;99.90
18103;DHT22;9178;51.120;6.192;2022-07-11T04:30:41;15.10;99.90
18103;DHT22;9178;51.120;6.192;2022-07-11T04:33:09;15.10;99.90
18103;DHT22;9178;51.120;6.192;2022-07-11T04:35:36;15.20;99.90
18103;DHT22;9178;51.120;6.192;2022-07-11T04:38:03;15.20;99.90
18103;DHT22;9178;51.120;6.192;2022-07-11T04:40:30;15.30;99.90
18103;DHT22;9178;51.120;6.192;2022-07-11T04:42:57;15.20;99.90
18103;DHT22;9178;51.120;6.192;2022-07-11T04:45:24;15.30;99.90
18103;DHT22;9178;51.120;6.192;2022-07-11T04:47:50;15.30;99.90
18103;DHT22;9178;51.120;6.192;2022-07-11T04:50:19;15.30;99.90
18103;DHT22;9178;51.120;6.192;2022-07-11T04:52:45;15.40;99.90
18103;DHT22;9178;51.120;6.192;2022-07-11T04:55:12;15.40;99.90
18103;DHT22;9178;51.120;6.192;2022-07-11T04:57:39;15.40;99.90
18103;DHT22;9178;51.120;6.192;2022-07-11T05:00:07;15.50;99.90
18103;DHT22;9178;51.120;6.192;2022-07-11T05:02:34;15.50;99.90
18103;DHT22;9178;51.120;6.192;2022-07-11T05:05:01;15.60;99.90
18103;DHT22;9178;51.120;6.192;2022-07-11T05:07:29;15.60;99.90
18103;DHT22;9178;51.120;6.192;2022-07-11T05:09:56;15.70;99.90
18103;DHT22;9178;51.120;6.192;2022-07-11T05:12:23;15.70;99.90
18103;DHT22;9178;51.120;6.192;2022-07-11T05:14:50;15.70;99.90
18103;DHT22;9178;51.120;6.192;2022-07-11T05:17:17;15.80;99.90
18103;DHT22;9178;51.120;6.192;2022-07-11T05:19:44;15.80;99.90
18103;DHT22;9178;51.120;6.192;2022-07-11T05:22:11;15.80;99.90
18103;DHT22;9178;51.120;6.192;2022-07-11T05:24:39;15.90;99.90
18103;DHT22;9178;51.120;6.192;2022-07-11T05:27:05;16.00;99.90
18103;DHT22;9178;51.120;6.192;2022-07-11T05:29:32;16.00;99.90
18103;DHT22;9178;51.120;6.192;2022-07-11T05:31:59;16.10;99.90
18103;DHT22;9178;51.120;6.192;2022-07-11T05:34:26;16.10;99.90
18103;DHT22;9178;51.120;6.192;2022-07-11T05:36:53;16.20;99.90
18103;DHT22;9178;51.120;6.192;2022-07-11T05:39:20;16.20;99.90
18103;DHT22;9178;51.120;6.192;2022-07-11T05:41:48;16.30;99.90
18103;DHT22;9178;51.120;6.192;2022-07-11T05:44:17;16.40;99.90
18103;DHT22;9178;51.120;6.192;2022-07-11T05:46:44;16.40;99.90
18103;DHT22;9178;51.120;6.192;2022-07-11T05:49:11;16.40;99.90
18103;DHT22;9178;51.120;6.192;2022-07-11T05:51:38;16.50;99.90
18103;DHT22;9178;51.120;6.192;2022-07-11T05:54:05;16.50;99.90
18103;DHT22;9178;51.120;6.192;2022-07-11T05:56:32;16.60;99.90
18103;DHT22;9178;51.120;6.192;2022-07-11T05:59:00;16.60;99.90
18103;DHT22;9178;51.120;6.192;2022-07-11T06:01:27;16.70;99.90
18103;DHT22;9178;51.120;6.192;2022-07-11T06:03:57;16.80;99.90
18103;DHT22;9178;51.120;6.192;2022-07-11T06:06:24;16.80;99.90
18103;DHT22;9178;51.120;6.192;2022-07-11T06:08:51;16.80;99.90
18103;DHT22;9178;51.120;6.192;2022-07-11T06:11:19;16.90;99.90
18103;DHT22;9178;51.120;6.192;2022-07-11T06:13:46;16.90;99.90
18103;DHT22;9178;51.120;6.192;2022-07-11T06:16:17;17.00;99.90
18103;DHT22;9178;51.120;6.192;2022-07-11T06:18:44;17.10;99.90
18103;DHT22;9178;51.120;6.192;2022-07-11T06:21:11;17.10;99.90
18103;DHT22;9178;51.120;6.192;2022-07-11T06:23:39;17.20;99.90
18103;DHT22;9178;51.120;6.192;2022-07-11T06:26:07;17.20;99.90
18103;DHT22;9178;51.120;6.192;2022-07-11T06:28:37;17.20;99.90
18103;DHT22;9178;51.120;6.192;2022-07-11T06:31:04;17.30;99.90
18103;DHT22;9178;51.120;6.192;2022-07-11T06:33:32;17.30;99.90
18103;DHT22;9178;51.120;6.192;2022-07-11T06:35:59;17.40;99.90
18103;DHT22;9178;51.120;6.192;2022-07-11T06:38:26;17.50;99.90
18103;DHT22;9178;51.120;6.192;2022-07-11T06:40:54;17.60;99.90
18103;DHT22;9178;51.120;6.192;2022-07-11T06:43:21;17.60;99.90
18103;DHT22;9178;51.120;6.192;2022-07-11T06:45:48;17.70;99.90
18103;DHT22;9178;51.120;6.192;2022-07-11T06:48:15;17.80;99.90
18103;DHT22;9178;51.120;6.192;2022-07-11T06:50:43;17.90;99.90
18103;DHT22;9178;51.120;6.192;2022-07-11T06:53:10;18.00;99.90
18103;DHT22;9178;51.120;6.192;2022-07-11T06:55:37;18.10;99.90
18103;DHT22;9178;51.120;6.192;2022-07-11T06:58:03;18.10;99.90
18103;DHT22;9178;51.120;6.192;2022-07-11T07:00:32;18.20;99.90
18103;DHT22;9178;51.120;6.192;2022-07-11T07:02:58;18.20;99.90
18103;DHT22;9178;51.120;6.192;2022-07-11T07:05:26;18.30;99.90
18103;DHT22;9178;51.120;6.192;2022-07-11T07:07:54;18.40;99.90
18103;DHT22;9178;51.120;6.192;2022-07-11T07:10:20;18.40;99.90
18103;DHT22;9178;51.120;6.192;2022-07-11T07:12:47;18.50;99.90
18103;DHT22;9178;51.120;6.192;2022-07-11T07:15:14;18.50;99.90
18103;DHT22;9178;51.120;6.192;2022-07-11T07:17:41;18.60;99.90
18103;DHT22;9178;51.120;6.192;2022-07-11T07:20:09;18.70;99.90
18103;DHT22;9178;51.120;6.192;2022-07-11T07:22:37;18.80;99.90
18103;DHT22;9178;51.120;6.192;2022-07-11T07:25:07;18.80;99.90
18103;DHT22;9178;51.120;6.192;2022-07-11T07:27:35;18.80;99.90
18103;DHT22;9178;51.120;6.192;2022-07-11T07:30:02;18.70;99.90
18103;DHT22;9178;51.120;6.192;2022-07-11T07:32:29;18.70;99.90
18103;DHT22;9178;51.120;6.192;2022-07-11T07:34:56;18.60;99.90
18103;DHT22;9178;51.120;6.192;2022-07-11T07:37:24;18.60;99.90
18103;DHT22;9178;51.120;6.192;2022-07-11T07:39:51;18.60;99.90
18103;DHT22;9178;51.120;6.192;2022-07-11T07:42:19;18.60;99.90
18103;DHT22;9178;51.120;6.192;2022-07-11T07:44:46;18.60;99.90
18103;DHT22;9178;51.120;6.192;2022-07-11T07:47:12;18.60;99.90
18103;DHT22;9178;51.120;6.192;2022-07-11T07:49:39;18.70;99.90
18103;DHT22;9178;51.120;6.192;2022-07-11T07:52:06;18.70;99.90
18103;DHT22;9178;51.120;6.192;2022-07-11T07:54:33;18.80;99.90
18103;DHT22;9178;51.120;6.192;2022-07-11T07:57:00;18.90;99.90
18103;DHT22;9178;51.120;6.192;2022-07-11T07:59:28;18.90;99.90
18103;DHT22;9178;51.120;6.192;2022-07-11T08:01:55;18.90;99.90
18103;DHT22;9178;51.120;6.192;2022-07-11T08:04:21;18.90;99.90
18103;DHT22;9178;51.120;6.192;2022-07-11T08:06:48;18.90;99.90
18103;DHT22;9178;51.120;6.192;2022-07-11T08:09:15;18.90;99.90
18103;DHT22;9178;51.120;6.192;2022-07-11T08:11:42;18.80;99.90
18103;DHT22;9178;51.120;6.192;2022-07-11T08:14:09;18.80;99.90
18103;DHT22;9178;51.120;6.192;2022-07-11T08:16:38;18.80;99.90
18103;DHT22;9178;51.120;6.192;2022-07-11T08:19:05;18.80;99.90
18103;DHT22;9178;51.120;6.192;2022-07-11T08:21:33;18.90;99.90
18103;DHT22;9178;51.120;6.192;2022-07-11T08:24:00;18.90;99.90
18103;DHT22;9178;51.120;6.192;2022-07-11T08:26:27;19.00;99.90
18103;DHT22;9178;51.120;6.192;2022-07-11T08:28:54;19.10;99.90
18103;DHT22;9178;51.120;6.192;2022-07-11T08:31:22;19.10;99.90
18103;DHT22;9178;51.120;6.192;2022-07-11T08:33:50;19.30;99.90
18103;DHT22;9178;51.120;6.192;2022-07-11T08:36:18;19.40;99.90
18103;DHT22;9178;51.120;6.192;2022-07-11T08:38:45;19.40;99.90
18103;DHT22;9178;51.120;6.192;2022-07-11T08:41:13;19.60;99.90
18103;DHT22;9178;51.120;6.192;2022-07-11T08:43:42;19.70;99.90
18103;DHT22;9178;51.120;6.192;2022-07-11T08:46:10;19.90;99.90
18103;DHT22;9178;51.120;6.192;2022-07-11T08:48:38;20.10;99.90
18103;DHT22;9178;51.120;6.192;2022-07-11T08:51:08;20.20;99.90
18103;DHT22;9178;51.120;6.192;2022-07-11T08:53:39;20.30;99.90
18103;DHT22;9178;51.120;6.192;2022-07-11T08:56:08;20.20;99.90
18103;DHT22;9178;51.120;6.192;2022-07-11T08:58:44;20.30;99.90
18103;DHT22;9178;51.120;6.192;2022-07-11T09:01:15;20.30;99.90
18103;DHT22;9178;51.120;6.192;2022-07-11T09:03:43;20.30;99.90
18103;DHT22;9178;51.120;6.192;2022-07-11T09:06:11;20.30;99.90
18103;DHT22;9178;51.120;6.192;2022-07-11T09:08:39;20.30;99.90
18103;DHT22;9178;51.120;6.192;2022-07-11T09:11:06;20.20;99.90
18103;DHT22;9178;51.120;6.192;2022-07-11T09:13:33;20.20;99.90
18103;DHT22;9178;51.120;6.192;2022-07-11T09:16:04;20.20;99.90
18103;DHT22;9178;51.120;6.192;2022-07-11T09:18:33;20.10;99.90
18103;DHT22;9178;51.120;6.192;2022-07-11T09:21:03;20.10;99.90
18103;DHT22;9178;51.120;6.192;2022-07-11T09:23:49;20.20;99.90
18103;DHT22;9178;51.120;6.192;2022-07-11T09:26:35;20.20;99.90
18103;DHT22;9178;51.120;6.192;2022-07-11T09:29:06;20.30;99.90
18103;DHT22;9178;51.120;6.192;2022-07-11T09:31:35;20.30;99.90
18103;DHT22;9178;51.120;6.192;2022-07-11T09:34:04;20.30;99.90
18103;DHT22;9178;51.120;6.192;2022-07-11T09:36:36;20.30;99.90
18103;DHT22;9178;51.120;6.192;2022-07-11T09:39:06;20.30;99.90
18103;DHT22;9178;51.120;6.192;2022-07-11T09:41:33;20.20;99.90
18103;DHT22;9178;51.120;6.192;2022-07-11T09:44:08;20.10;99.90
18103;DHT22;9178;51.120;6.192;2022-07-11T09:46:35;20.00;99.90
18103;DHT22;9178;51.120;6.192;2022-07-11T09:49:02;19.90;99.90
18103;DHT22;9178;51.120;6.192;2022-07-11T09:51:31;20.00;99.90
18103;DHT22;9178;51.120;6.192;2022-07-11T09:53:58;20.00;99.90
18103;DHT22;9178;51.120;6.192;2022-07-11T09:56:33;19.90;99.90
18103;DHT22;9178;51.120;6.192;2022-07-11T09:59:01;20.00;99.90
18103;DHT22;9178;51.120;6.192;2022-07-11T10:01:28;20.10;99.90
18103;DHT22;9178;51.120;6.192;2022-07-11T10:03:55;20.20;99.90
18103;DHT22;9178;51.120;6.192;2022-07-11T10:06:22;20.30;99.90
18103;DHT22;9178;51.120;6.192;2022-07-11T10:08:50;20.30;99.90
18103;DHT22;9178;51.120;6.192;2022-07-11T10:11:17;20.30;99.90
18103;DHT22;9178;51.120;6.192;2022-07-11T10:13:46;20.40;99.90
18103;DHT22;9178;51.120;6.192;2022-07-11T10:16:21;20.40;99.90
18103;DHT22;9178;51.120;6.192;2022-07-11T10:18:53;20.50;99.90
18103;DHT22;9178;51.120;6.192;2022-07-11T10:21:27;20.60;99.90
18103;DHT22;9178;51.120;6.192;2022-07-11T10:24:00;20.70;99.90
18103;DHT22;9178;51.120;6.192;2022-07-11T10:26:35;20.70;99.90
18103;DHT22;9178;51.120;6.192;2022-07-11T10:29:09;20.60;99.90
18103;DHT22;9178;51.120;6.192;2022-07-11T10:31:37;20.60;99.90
18103;DHT22;9178;51.120;6.192;2022-07-11T10:34:05;20.60;99.90
18103;DHT22;9178;51.120;6.192;2022-07-11T10:36:33;20.60;99.90
18103;DHT22;9178;51.120;6.192;2022-07-11T10:39:16;20.60;99.90
18103;DHT22;9178;51.120;6.192;2022-07-11T10:41:44;20.60;99.90
18103;DHT22;9178;51.120;6.192;2022-07-11T10:44:12;20.60;99.90
18103;DHT22;9178;51.120;6.192;2022-07-11T10:46:39;20.70;99.90
18103;DHT22;9178;51.120;6.192;2022-07-11T10:49:16;20.80;99.90
18103;DHT22;9178;51.120;6.192;2022-07-11T10:51:50;20.80;99.90
18103;DHT22;9178;51.120;6.192;2022-07-11T10:54:26;20.90;99.90
18103;DHT22;9178;51.120;6.192;2022-07-11T10:57:08;20.90;99.90
18103;DHT22;9178;51.120;6.192;2022-07-11T10:59:58;20.90;99.90
18103;DHT22;9178;51.120;6.192;2022-07-11T11:02:26;20.90;99.90
18103;DHT22;9178;51.120;6.192;2022-07-11T11:04:54;20.90;99.90
18103;DHT22;9178;51.120;6.192;2022-07-11T11:07:32;21.00;99.90
18103;DHT22;9178;51.120;6.192;2022-07-11T11:10:03;21.10;99.90
18103;DHT22;9178;51.120;6.192;2022-07-11T11:15:40;21.30;99.90
18103;DHT22;9178;51.120;6.192;2022-07-11T11:18:40;21.30;99.90
18103;DHT22;9178;51.120;6.192;2022-07-11T11:21:18;21.40;99.90
18103;DHT22;9178;51.120;6.192;2022-07-11T11:23:59;21.60;99.90
18103;DHT22;9178;51.120;6.192;2022-07-11T11:26:51;21.70;99.90
18103;DHT22;9178;51.120;6.192;2022-07-11T11:29:23;21.80;99.90
18103;DHT22;9178;51.120;6.192;2022-07-11T11:31:54;21.90;99.90
18103;DHT22;9178;51.120;6.192;2022-07-11T11:34:22;22.00;99.90
18103;DHT22;9178;51.120;6.192;2022-07-11T11:36:56;22.10;99.90
18103;DHT22;9178;51.120;6.192;2022-07-11T11:39:25;22.10;99.90
18103;DHT22;9178;51.120;6.192;2022-07-11T11:41:52;22.10;99.90
18103;DHT22;9178;51.120;6.192;2022-07-11T11:44:19;22.20;99.90
18103;DHT22;9178;51.120;6.192;2022-07-11T11:46:46;22.20;99.90
18103;DHT22;9178;51.120;6.192;2022-07-11T11:49:14;22.10;99.90
18103;DHT22;9178;51.120;6.192;2022-07-11T11:51:41;22.10;99.90
18103;DHT22;9178;51.120;6.192;2022-07-11T11:54:09;22.10;99.90
18103;DHT22;9178;51.120;6.192;2022-07-11T11:56:37;22.10;99.90
18103;DHT22;9178;51.120;6.192;2022-07-11T11:59:08;22.00;99.90
18103;DHT22;9178;51.120;6.192;2022-07-11T12:01:39;22.00;99.90
18103;DHT22;9178;51.120;6.192;2022-07-11T12:04:09;21.90;99.90
18103;DHT22;9178;51.120;6.192;2022-07-11T12:06:41;21.80;99.90
18103;DHT22;9178;51.120;6.192;2022-07-11T12:09:09;21.60;99.90
18103;DHT22;9178;51.120;6.192;2022-07-11T12:11:36;21.50;99.90
18103;DHT22;9178;51.120;6.192;2022-07-11T12:14:05;21.50;99.90
18103;DHT22;9178;51.120;6.192;2022-07-11T12:16:33;21.40;99.90
18103;DHT22;9178;51.120;6.192;2022-07-11T12:19:09;21.30;99.90
18103;DHT22;9178;51.120;6.192;2022-07-11T12:21:39;21.30;99.90
18103;DHT22;9178;51.120;6.192;2022-07-11T12:24:08;21.40;99.90
18103;DHT22;9178;51.120;6.192;2022-07-11T12:26:37;21.40;99.90
18103;DHT22;9178;51.120;6.192;2022-07-11T12:29:06;21.30;99.90
18103;DHT22;9178;51.120;6.192;2022-07-11T12:31:47;21.30;99.90
18103;DHT22;9178;51.120;6.192;2022-07-11T12:34:15;21.30;99.90
18103;DHT22;9178;51.120;6.192;2022-07-11T12:36:44;21.30;99.90
18103;DHT22;9178;51.120;6.192;2022-07-11T12:39:21;21.40;99.90
18103;DHT22;9178;51.120;6.192;2022-07-11T12:41:49;21.30;99.90
18103;DHT22;9178;51.120;6.192;2022-07-11T12:44:21;21.30;99.90
18103;DHT22;9178;51.120;6.192;2022-07-11T12:47:06;21.40;99.90
18103;DHT22;9178;51.120;6.192;2022-07-11T12:49:33;21.40;99.90
18103;DHT22;9178;51.120;6.192;2022-07-11T12:52:02;21.50;99.90
18103;DHT22;9178;51.120;6.192;2022-07-11T12:54:30;21.50;99.90
18103;DHT22;9178;51.120;6.192;2022-07-11T12:56:59;21.60;99.90
18103;DHT22;9178;51.120;6.192;2022-07-11T12:59:28;21.70;99.90
18103;DHT22;9178;51.120;6.192;2022-07-11T13:01:58;21.90;99.90
18103;DHT22;9178;51.120;6.192;2022-07-11T13:04:34;22.20;99.90
18103;DHT22;9178;51.120;6.192;2022-07-11T13:07:25;22.20;99.90
18103;DHT22;9178;51.120;6.192;2022-07-11T13:10:10;22.30;99.90
18103;DHT22;9178;51.120;6.192;2022-07-11T13:12:37;22.30;99.90
18103;DHT22;9178;51.120;6.192;2022-07-11T13:15:06;22.40;99.90
18103;DHT22;9178;51.120;6.192;2022-07-11T13:17:36;22.50;99.90
18103;DHT22;9178;51.120;6.192;2022-07-11T13:20:06;22.60;99.90
18103;DHT22;9178;51.120;6.192;2022-07-11T13:22:35;22.70;99.90
18103;DHT22;9178;51.120;6.192;2022-07-11T13:25:02;22.70;99.90
18103;DHT22;9178;51.120;6.192;2022-07-11T13:27:29;22.60;99.90
18103;DHT22;9178;51.120;6.192;2022-07-11T13:29:57;22.60;99.90
18103;DHT22;9178;51.120;6.192;2022-07-11T13:32:24;22.50;99.90
18103;DHT22;9178;51.120;6.192;2022-07-11T13:34:50;22.40;99.90
18103;DHT22;9178;51.120;6.192;2022-07-11T13:37:18;22.60;99.90
18103;DHT22;9178;51.120;6.192;2022-07-11T13:39:46;22.70;99.90
18103;DHT22;9178;51.120;6.192;2022-07-11T13:42:13;22.70;99.90
18103;DHT22;9178;51.120;6.192;2022-07-11T13:44:39;22.80;99.90
18103;DHT22;9178;51.120;6.192;2022-07-11T13:47:06;22.90;99.90
18103;DHT22;9178;51.120;6.192;2022-07-11T13:49:33;23.00;99.90
18103;DHT22;9178;51.120;6.192;2022-07-11T13:52:00;23.20;99.90
18103;DHT22;9178;51.120;6.192;2022-07-11T13:54:27;23.50;99.90
18103;DHT22;9178;51.120;6.192;2022-07-11T13:56:55;23.50;99.90
18103;DHT22;9178;51.120;6.192;2022-07-11T13:59:22;23.50;99.90
18103;DHT22;9178;51.120;6.192;2022-07-11T14:01:49;23.40;99.90
18103;DHT22;9178;51.120;6.192;2022-07-11T14:04:17;23.40;99.90
18103;DHT22;9178;51.120;6.192;2022-07-11T14:06:44;23.40;99.90
18103;DHT22;9178;51.120;6.192;2022-07-11T14:09:11;23.50;99.90
18103;DHT22;9178;51.120;6.192;2022-07-11T14:11:39;23.40;99.90
18103;DHT22;9178;51.120;6.192;2022-07-11T14:14:07;23.30;99.90
18103;DHT22;9178;51.120;6.192;2022-07-11T14:16:34;23.30;99.90
18103;DHT22;9178;51.120;6.192;2022-07-11T14:19:01;23.20;99.90
18103;DHT22;9178;51.120;6.192;2022-07-11T14:21:30;23.30;99.90
18103;DHT22;9178;51.120;6.192;2022-07-11T14:23:57;23.10;99.90
18103;DHT22;9178;51.120;6.192;2022-07-11T14:26:23;23.20;99.90
18103;DHT22;9178;51.120;6.192;2022-07-11T14:28:50;23.30;99.90
18103;DHT22;9178;51.120;6.192;2022-07-11T14:31:18;23.40;99.90
18103;DHT22;9178;51.120;6.192;2022-07-11T14:33:48;23.50;99.90
18103;DHT22;9178;51.120;6.192;2022-07-11T14:36:14;23.60;99.90
18103;DHT22;9178;51.120;6.192;2022-07-11T14:38:42;23.70;99.90
18103;DHT22;9178;51.120;6.192;2022-07-11T14:41:10;23.70;99.90
18103;DHT22;9178;51.120;6.192;2022-07-11T14:43:36;23.70;99.90
18103;DHT22;9178;51.120;6.192;2022-07-11T14:46:03;23.70;99.90
18103;DHT22;9178;51.120;6.192;2022-07-11T14:48:31;23.70;99.90
18103;DHT22;9178;51.120;6.192;2022-07-11T14:50:58;23.70;99.90
18103;DHT22;9178;51.120;6.192;2022-07-11T14:53:26;23.60;99.90
18103;DHT22;9178;51.120;6.192;2022-07-11T14:55:53;23.50;99.90
18103;DHT22;9178;51.120;6.192;2022-07-11T14:58:20;23.30;99.90
18103;DHT22;9178;51.120;6.192;2022-07-11T15:00:47;23.30;99.90
18103;DHT22;9178;51.120;6.192;2022-07-11T15:03:13;23.10;99.90
18103;DHT22;9178;51.120;6.192;2022-07-11T15:05:59;22.90;99.90
18103;DHT22;9178;51.120;6.192;2022-07-11T15:08:26;22.90;99.90
18103;DHT22;9178;51.120;6.192;2022-07-11T15:11:10;23.00;99.90
18103;DHT22;9178;51.120;6.192;2022-07-11T15:14:06;23.20;99.90
18103;DHT22;9178;51.120;6.192;2022-07-11T15:16:33;23.50;99.90
18103;DHT22;9178;51.120;6.192;2022-07-11T15:19:01;23.50;99.90
18103;DHT22;9178;51.120;6.192;2022-07-11T15:21:30;23.60;99.90
18103;DHT22;9178;51.120;6.192;2022-07-11T15:23:57;23.70;99.90
18103;DHT22;9178;51.120;6.192;2022-07-11T15:26:24;23.90;99.90
18103;DHT22;9178;51.120;6.192;2022-07-11T15:28:52;24.00;99.90
18103;DHT22;9178;51.120;6.192;2022-07-11T15:31:19;24.00;99.90
18103;DHT22;9178;51.120;6.192;2022-07-11T15:33:46;24.00;99.90
18103;DHT22;9178;51.120;6.192;2022-07-11T15:36:16;24.10;99.90
18103;DHT22;9178;51.120;6.192;2022-07-11T15:38:44;24.10;99.90
18103;DHT22;9178;51.120;6.192;2022-07-11T15:41:13;24.20;99.90
18103;DHT22;9178;51.120;6.192;2022-07-11T15:43:40;24.30;99.90
18103;DHT22;9178;51.120;6.192;2022-07-11T15:46:07;24.40;99.90
18103;DHT22;9178;51.120;6.192;2022-07-11T15:48:34;24.50;99.90
18103;DHT22;9178;51.120;6.192;2022-07-11T15:51:01;24.50;99.90
18103;DHT22;9178;51.120;6.192;2022-07-11T15:53:28;24.40;99.90
18103;DHT22;9178;51.120;6.192;2022-07-11T15:55:56;24.50;99.90
18103;DHT22;9178;51.120;6.192;2022-07-11T15:58:23;24.80;99.90